createdAt,value
2022-11-20T00:03:03.842Z,-4.10
2022-11-20T00:08:06.749Z,-4.12
2022-11-20T00:13:09.659Z,-4.07
2022-11-20T00:18:12.511Z,-4.07
2022-11-20T00:23:15.366Z,-4.10
2022-11-20T00:28:18.228Z,-4.15
2022-11-20T00:33:21.043Z,-4.18
2022-11-20T00:38:23.924Z,-4.16
2022-11-20T00:43:27.712Z,-4.18
2022-11-20T00:48:30.705Z,-4.22
2022-11-20T00:53:33.706Z,-4.28
2022-11-20T00:58:39.068Z,-4.32
2022-11-20T01:03:47.215Z,-4.35
2022-11-20T01:08:51.648Z,-4.30
2022-11-20T01:13:56.504Z,-4.25
2022-11-20T01:19:01.649Z,-4.23
2022-11-20T01:24:06.868Z,-4.25
2022-11-20T01:29:22.978Z,-4.26
2022-11-20T01:34:26.598Z,-4.28
2022-11-20T01:39:29.502Z,-4.30
2022-11-20T01:44:59.235Z,-4.31
2022-11-20T01:50:11.476Z,-4.25
2022-11-20T01:55:18.780Z,-4.15
2022-11-20T02:00:22.580Z,-4.08
2022-11-20T02:05:33.900Z,-4.04
2022-11-20T02:10:36.936Z,-4.05
2022-11-20T02:15:39.821Z,-4.05
2022-11-20T02:20:56.015Z,-4.06
2022-11-20T02:26:02.013Z,-4.01
2022-11-20T02:31:04.987Z,-3.95
2022-11-20T02:36:12.683Z,-3.92
2022-11-20T02:41:15.563Z,-3.92
2022-11-20T02:46:18.422Z,-3.92
2022-11-20T02:51:21.268Z,-3.93
2022-11-20T02:56:24.569Z,-3.89
2022-11-20T03:01:27.446Z,-3.82
2022-11-20T03:06:30.352Z,-3.79
2022-11-20T03:11:33.174Z,-3.80
2022-11-20T03:16:36.030Z,-3.86
2022-11-20T03:21:38.931Z,-3.91
2022-11-20T03:26:42.065Z,-3.86
2022-11-20T03:31:44.946Z,-3.81
2022-11-20T03:36:47.804Z,-3.80
2022-11-20T03:41:50.700Z,-3.82
2022-11-20T03:46:53.558Z,-3.84
2022-11-20T03:51:56.380Z,-3.88
2022-11-20T03:56:59.263Z,-3.87
2022-11-20T04:02:02.097Z,-3.85
2022-11-20T04:07:05.088Z,-3.82
2022-11-20T04:12:08.046Z,-3.83
2022-11-20T04:17:10.890Z,-3.87
2022-11-20T04:22:13.747Z,-3.91
2022-11-20T04:27:16.594Z,-3.89
2022-11-20T04:32:19.488Z,-3.84
2022-11-20T04:37:22.323Z,-3.83
2022-11-20T04:42:31.324Z,-3.84
2022-11-20T04:47:34.143Z,-3.84
2022-11-20T04:52:36.969Z,-3.86
2022-11-20T04:57:39.770Z,-3.83
2022-11-20T05:02:42.637Z,-3.78
2022-11-20T05:07:45.448Z,-3.77
2022-11-20T05:12:48.341Z,-3.79
2022-11-20T05:17:52.604Z,-3.83
2022-11-20T05:22:58.545Z,-3.82
2022-11-20T05:28:01.421Z,-3.77
2022-11-20T05:33:04.309Z,-3.72
2022-11-20T05:38:07.740Z,-3.72
2022-11-20T05:43:10.757Z,-3.78
2022-11-20T05:48:13.602Z,-3.80
2022-11-20T05:53:16.414Z,-3.76
2022-11-20T05:58:19.254Z,-3.72
2022-11-20T06:03:22.203Z,-3.72
2022-11-20T06:08:25.005Z,-3.74
2022-11-20T06:13:27.818Z,-3.76
2022-11-20T06:18:31.272Z,-3.71
2022-11-20T06:23:35.579Z,-3.65
2022-11-20T06:28:38.911Z,-3.66
2022-11-20T06:33:43.184Z,-3.65
2022-11-20T06:38:46.147Z,-3.70
2022-11-20T06:43:49.334Z,-3.73
2022-11-20T06:48:52.412Z,-3.67
2022-11-20T06:53:55.726Z,-3.54
2022-11-20T06:58:58.457Z,-3.45
2022-11-20T07:04:01.338Z,-3.45
2022-11-20T07:09:08.568Z,-3.45
2022-11-20T07:14:14.372Z,-3.39
2022-11-20T07:19:17.229Z,-3.28
2022-11-20T07:24:20.065Z,-3.19
2022-11-20T07:29:23.150Z,-3.09
2022-11-20T07:34:26.255Z,-3.01
2022-11-20T07:39:29.076Z,-2.96
2022-11-20T07:44:31.928Z,-2.86
2022-11-20T07:49:34.826Z,-2.76
2022-11-20T07:54:37.698Z,-2.67
2022-11-20T07:59:40.535Z,-2.60
2022-11-20T08:04:43.374Z,-2.58
2022-11-20T08:09:46.215Z,-2.47
2022-11-20T08:14:49.011Z,-2.32
2022-11-20T08:19:51.863Z,-2.18
2022-11-20T08:24:54.669Z,-2.06
2022-11-20T08:29:57.510Z,-1.93
2022-11-20T08:35:00.599Z,-1.72
2022-11-20T08:40:03.628Z,-1.50
2022-11-20T08:57:59.364Z,-1.29
2022-11-20T09:03:02.969Z,-1.12
2022-11-20T09:08:05.916Z,-0.91
2022-11-20T09:13:08.785Z,-0.77
2022-11-20T09:18:11.605Z,-0.68
2022-11-20T09:23:14.530Z,-0.58
2022-11-20T09:28:20.903Z,-0.36
2022-11-20T09:33:23.981Z,-0.23
2022-11-20T09:38:27.171Z,0.03
2022-11-20T09:43:37.876Z,0.12
2022-11-20T09:48:51.034Z,0.38
2022-11-20T09:54:12.387Z,0.48
2022-11-20T09:59:41.200Z,0.28
2022-11-20T10:04:51.236Z,0.12
2022-11-20T10:09:57.286Z,0.02
2022-11-20T10:15:21.862Z,0.30
2022-11-20T10:20:55.737Z,0.50
2022-11-20T10:26:11.866Z,0.28
2022-11-20T10:31:37.328Z,0.04
2022-11-20T10:36:48.083Z,0.03
2022-11-20T10:41:53.415Z,0.05
2022-11-20T10:46:56.558Z,0.27
2022-11-20T10:52:14.419Z,0.43
2022-11-20T10:57:47.623Z,0.26
2022-11-20T11:02:52.837Z,-0.03
2022-11-20T11:07:58.565Z,-0.36
2022-11-20T11:13:01.459Z,-0.71
2022-11-20T11:18:06.853Z,-0.88
2022-11-20T11:23:29.797Z,-0.91
2022-11-20T11:28:33.210Z,-0.98
2022-11-20T11:33:36.941Z,-1.15
2022-11-20T11:38:45.050Z,-1.29
2022-11-20T11:44:15.341Z,-1.30
2022-11-20T11:49:19.594Z,-1.29
2022-11-20T11:54:51.303Z,-1.35
2022-11-20T12:00:15.804Z,-1.35
2022-11-20T12:05:33.446Z,-1.37
2022-11-20T12:10:39.089Z,-1.26
2022-11-20T12:15:47.148Z,-1.08
2022-11-20T12:21:05.316Z,-0.96
2022-11-20T12:26:56.034Z,-0.94
2022-11-20T12:32:16.744Z,-0.93
2022-11-20T12:37:28.619Z,-0.96
2022-11-20T12:43:14.290Z,-0.92
2022-11-20T12:48:34.353Z,-0.94
2022-11-20T12:53:56.082Z,-1.03
2022-11-20T12:59:36.654Z,-1.12
2022-11-20T13:04:50.598Z,-1.24
2022-11-20T13:09:55.151Z,-1.33
2022-11-20T13:15:19.630Z,-1.36
2022-11-20T13:20:22.950Z,-1.34
2022-11-20T13:25:33.081Z,-1.42
2022-11-20T13:30:38.115Z,-1.52
2022-11-20T13:35:55.501Z,-1.63
2022-11-20T13:41:20.924Z,-1.63
2022-11-20T13:46:25.684Z,-1.55
2022-11-20T13:51:41.242Z,-1.53
2022-11-20T13:57:07.306Z,-1.57
2022-11-20T14:02:17.314Z,-1.63
2022-11-20T14:07:24.931Z,-1.70
2022-11-20T14:12:32.875Z,-1.72
2022-11-20T14:17:37.685Z,-1.69
2022-11-20T14:22:40.625Z,-1.71
2022-11-20T14:27:48.341Z,-1.76
2022-11-20T14:32:54.217Z,-1.83
2022-11-20T14:37:58.426Z,-1.90
2022-11-20T14:43:01.453Z,-1.91
2022-11-20T14:48:04.628Z,-1.90
2022-11-20T14:53:07.565Z,-1.87
2022-11-20T14:58:26.011Z,-1.88
2022-11-20T15:03:37.426Z,-1.95
2022-11-20T15:08:52.457Z,-2.03
2022-11-20T15:13:55.448Z,-2.03
2022-11-20T15:18:58.433Z,-1.98
2022-11-20T15:24:02.053Z,-1.95
2022-11-20T15:29:05.364Z,-1.97
2022-11-20T15:34:15.516Z,-2.02
2022-11-20T15:39:18.999Z,-2.07
2022-11-20T15:44:22.021Z,-2.10
2022-11-20T15:49:25.112Z,-2.08
2022-11-20T15:54:28.131Z,-2.01
2022-11-20T15:59:31.122Z,-1.98
2022-11-20T16:04:33.966Z,-1.98
2022-11-20T16:09:36.865Z,-2.00
2022-11-20T16:14:58.352Z,-1.95
2022-11-20T16:20:01.185Z,-1.89
2022-11-20T16:25:05.303Z,-1.88
2022-11-20T16:30:09.228Z,-1.89
2022-11-20T16:35:12.100Z,-1.93
2022-11-20T16:40:15.282Z,-1.88
2022-11-20T16:45:23.401Z,-1.84
2022-11-20T16:50:29.086Z,-1.84
2022-11-20T16:55:31.892Z,-1.85
2022-11-20T17:00:37.956Z,-1.82
2022-11-20T17:05:40.837Z,-1.79
2022-11-20T17:10:43.784Z,-1.85
2022-11-20T17:15:46.618Z,-1.91
2022-11-20T17:20:52.914Z,-2.00
2022-11-20T17:26:03.501Z,-1.99
2022-11-20T17:31:12.081Z,-1.96
2022-11-20T17:36:17.808Z,-1.99
2022-11-20T17:41:25.741Z,-2.01
2022-11-20T17:46:34.567Z,-2.02
2022-11-20T17:51:37.405Z,-1.99
2022-11-20T17:56:58.838Z,-2.03
2022-11-20T18:02:03.836Z,-2.09
2022-11-20T18:07:07.057Z,-2.11
2022-11-20T18:12:09.936Z,-2.14
2022-11-20T18:17:14.854Z,-2.15
2022-11-20T18:22:20.224Z,-2.19
2022-11-20T18:27:24.101Z,-2.22
2022-11-20T18:32:27.394Z,-2.21
2022-11-20T18:37:31.652Z,-2.19
2022-11-20T18:42:55.670Z,-2.20
2022-11-20T18:47:58.532Z,-2.26
2022-11-20T18:53:01.352Z,-2.30
2022-11-20T18:58:04.224Z,-2.31
2022-11-20T19:03:07.094Z,-2.28
2022-11-20T19:08:09.954Z,-2.29
2022-11-20T19:13:12.802Z,-2.33
2022-11-20T19:18:15.770Z,-2.37
2022-11-20T19:23:22.037Z,-2.36
2022-11-20T19:28:24.918Z,-2.31
2022-11-20T19:33:27.781Z,-2.30
2022-11-20T19:38:30.633Z,-2.31
2022-11-20T19:43:33.861Z,-2.36
2022-11-20T19:48:37.695Z,-2.33
2022-11-20T19:53:40.976Z,-2.30
2022-11-20T19:58:43.801Z,-2.31
2022-11-20T20:03:48.014Z,-2.34
2022-11-20T20:09:04.492Z,-2.37
2022-11-20T20:14:14.833Z,-2.37
2022-11-20T20:19:18.943Z,-2.33
2022-11-20T20:24:21.763Z,-2.31
2022-11-20T20:29:25.026Z,-2.34
2022-11-20T20:34:29.855Z,-2.35
2022-11-20T20:39:32.717Z,-2.28
2022-11-20T20:44:54.115Z,-2.24
2022-11-20T20:49:56.962Z,-2.24
2022-11-20T20:54:59.927Z,-2.26
2022-11-20T21:00:05.117Z,-2.25
2022-11-20T21:05:08.433Z,-2.22
2022-11-20T21:10:11.153Z,-2.21
2022-11-20T21:15:14.025Z,-2.23
2022-11-20T21:20:35.529Z,-2.27
2022-11-20T21:25:39.598Z,-2.25
2022-11-20T21:30:42.449Z,-2.23
2022-11-20T21:35:45.304Z,-2.25
2022-11-20T21:40:48.123Z,-2.32
2022-11-20T21:45:52.438Z,-2.39
2022-11-20T21:50:55.247Z,-2.39
2022-11-20T21:55:58.851Z,-2.38
2022-11-20T22:01:26.095Z,-2.37
2022-11-20T22:06:34.445Z,-2.41
2022-11-20T22:11:37.279Z,-2.44
2022-11-20T22:16:40.183Z,-2.44
2022-11-20T22:21:43.056Z,-2.47
2022-11-20T22:26:46.482Z,-2.58
2022-11-20T22:31:53.190Z,-2.73
2022-11-20T22:36:56.148Z,-2.92
2022-11-20T22:41:59.014Z,-3.00
2022-11-20T22:47:01.822Z,-3.00
2022-11-20T22:52:04.791Z,-3.04
2022-11-20T22:57:07.628Z,-3.20
2022-11-20T23:02:10.459Z,-3.45
2022-11-20T23:07:13.350Z,-3.68
2022-11-20T23:12:16.239Z,-3.84
2022-11-20T23:17:19.075Z,-3.98
2022-11-20T23:22:21.920Z,-4.08
2022-11-20T23:27:28.240Z,-4.15
2022-11-20T23:32:31.274Z,-4.22
2022-11-20T23:37:34.190Z,-4.26
2022-11-20T23:42:37.036Z,-4.22
2022-11-20T23:47:40.185Z,-4.09
2022-11-20T23:52:43.009Z,-3.98
2022-11-20T23:57:45.838Z,-3.93
